createdAt,value
2019-04-13T00:00:12.135Z,4.67
2019-04-13T00:02:45.375Z,5.07
2019-04-13T00:05:31.987Z,5.37
2019-04-13T00:08:02.818Z,5.63
2019-04-13T00:10:35.832Z,5.27
2019-04-13T00:13:11.156Z,5.47
2019-04-13T00:15:39.688Z,5.43
2019-04-13T00:18:08.137Z,5.67
2019-04-13T00:20:41.246Z,5.40
2019-04-13T00:23:10.005Z,8.30
2019-04-13T00:25:38.516Z,8.27
2019-04-13T00:28:07.240Z,5.97
2019-04-13T00:30:35.966Z,5.03
2019-04-13T00:33:04.636Z,5.47
2019-04-13T00:35:33.500Z,5.90
2019-04-13T00:38:02.438Z,5.50
2019-04-13T00:40:31.031Z,6.43
2019-04-13T00:43:02.518Z,6.17
2019-04-13T00:45:33.963Z,5.50
2019-04-13T00:48:02.643Z,5.47
2019-04-13T00:50:33.361Z,5.83
2019-04-13T00:53:01.856Z,5.80
2019-04-13T00:55:30.543Z,6.00
2019-04-13T00:58:01.876Z,5.33
2019-04-13T01:00:44.628Z,5.70
2019-04-13T01:03:16.389Z,5.60
2019-04-13T01:05:44.819Z,6.03
2019-04-13T01:08:15.974Z,6.07
2019-04-13T01:10:44.446Z,5.57
2019-04-13T01:13:12.894Z,5.63
2019-04-13T01:15:43.160Z,6.00
2019-04-13T01:18:15.921Z,6.90
2019-04-13T01:20:51.683Z,6.27
2019-04-13T01:23:24.767Z,5.67
2019-04-13T01:25:54.925Z,6.80
2019-04-13T01:28:26.837Z,6.40
2019-04-13T01:30:59.270Z,6.27
2019-04-13T01:33:31.899Z,6.53
2019-04-13T01:36:23.483Z,6.33
2019-04-13T01:38:51.956Z,6.47
2019-04-13T01:41:20.375Z,6.43
2019-04-13T01:43:48.930Z,6.30
2019-04-13T01:46:21.581Z,6.20
2019-04-13T01:48:53.420Z,6.53
2019-04-13T01:51:23.527Z,7.10
2019-04-13T01:53:54.824Z,6.53
2019-04-13T01:56:23.373Z,6.43
2019-04-13T01:58:51.796Z,6.80
2019-04-13T02:01:24.556Z,6.37
2019-04-13T02:03:57.334Z,7.00
2019-04-13T02:06:25.760Z,6.93
2019-04-13T02:09:07.951Z,7.67
2019-04-13T02:11:38.178Z,7.60
2019-04-13T02:14:06.624Z,6.53
2019-04-13T02:16:35.039Z,6.60
2019-04-13T02:19:03.661Z,7.40
2019-04-13T02:21:32.305Z,7.60
2019-04-13T02:24:02.677Z,6.93
2019-04-13T02:26:31.123Z,6.90
2019-04-13T02:28:59.546Z,7.60
2019-04-13T02:31:28.812Z,6.77
2019-04-13T02:34:00.355Z,6.93
2019-04-13T02:36:28.971Z,6.10
2019-04-13T02:39:01.126Z,6.73
2019-04-13T02:41:27.897Z,7.27
2019-04-13T02:43:56.408Z,7.40
2019-04-13T02:46:24.857Z,7.33
2019-04-13T02:48:59.271Z,7.47
2019-04-13T02:51:28.012Z,6.67
2019-04-13T02:53:56.503Z,7.30
2019-04-13T02:56:24.990Z,7.00
2019-04-13T02:58:53.506Z,7.90
2019-04-13T03:01:22.014Z,8.70
2019-04-13T03:03:50.485Z,7.10
2019-04-13T03:06:19.023Z,7.80
2019-04-13T03:08:47.466Z,7.50
2019-04-13T03:11:16.435Z,7.10
2019-04-13T03:13:46.363Z,7.73
2019-04-13T03:16:32.996Z,7.20
2019-04-13T03:19:09.077Z,7.53
2019-04-13T03:21:37.553Z,7.57
2019-04-13T03:24:05.967Z,7.80
2019-04-13T03:26:34.390Z,7.13
2019-04-13T03:29:02.819Z,7.13
2019-04-13T03:31:31.241Z,8.20
2019-04-13T03:33:59.651Z,6.80
2019-04-13T03:36:28.082Z,7.07
2019-04-13T03:38:56.499Z,6.87
2019-04-13T03:41:25.002Z,8.33
2019-04-13T03:43:53.450Z,7.70
2019-04-13T03:46:21.896Z,6.80
2019-04-13T03:48:50.374Z,7.67
2019-04-13T03:51:18.983Z,7.80
2019-04-13T03:53:47.423Z,7.23
2019-04-13T03:56:17.410Z,7.13
2019-04-13T03:58:49.219Z,7.63
2019-04-13T04:01:20.750Z,6.97
2019-04-13T04:03:49.169Z,7.93
2019-04-13T04:06:19.715Z,7.23
2019-04-13T04:08:50.903Z,6.57
2019-04-13T04:11:19.339Z,7.30
2019-04-13T04:13:49.388Z,7.07
2019-04-13T04:16:17.881Z,7.73
2019-04-13T04:18:52.244Z,7.77
2019-04-13T04:21:22.215Z,7.80
2019-04-13T04:23:50.632Z,7.77
2019-04-13T04:26:19.066Z,8.37
2019-04-13T04:28:47.487Z,7.50
2019-04-13T04:31:17.455Z,7.37
2019-04-13T04:33:45.903Z,7.27
2019-04-13T04:36:23.612Z,7.23
2019-04-13T04:38:46.172Z,7.40
2019-04-13T04:41:14.670Z,6.17
2019-04-13T04:43:43.096Z,7.93
2019-04-13T04:46:11.535Z,7.87
2019-04-13T04:48:39.952Z,7.43
2019-04-13T04:51:12.229Z,7.17
2019-04-13T04:53:40.647Z,7.97
2019-04-13T04:56:09.176Z,7.60
2019-04-13T04:58:37.727Z,6.87
2019-04-13T05:01:06.237Z,7.03
2019-04-13T05:03:36.274Z,6.97
2019-04-13T05:06:04.695Z,7.00
2019-04-13T05:08:33.212Z,7.30
2019-04-13T05:11:01.790Z,6.40
2019-04-13T05:13:30.244Z,6.63
2019-04-13T05:15:58.846Z,7.00
2019-04-13T05:18:27.319Z,6.90
2019-04-13T05:20:58.959Z,6.40
2019-04-13T05:23:34.283Z,6.70
2019-04-13T05:26:03.218Z,6.40
2019-04-13T05:28:36.817Z,7.23
2019-04-13T05:31:05.593Z,7.83
2019-04-13T05:33:34.159Z,7.07
2019-04-13T05:36:11.988Z,6.37
2019-04-13T05:38:40.491Z,6.80
2019-04-13T05:41:09.777Z,6.53
2019-04-13T05:43:38.353Z,7.07
2019-04-13T05:46:07.051Z,6.23
2019-04-13T05:48:35.565Z,6.73
2019-04-13T05:51:03.976Z,6.60
2019-04-13T05:53:32.452Z,7.00
2019-04-13T05:56:02.775Z,6.30
2019-04-13T05:58:31.390Z,6.17
2019-04-13T06:00:59.950Z,6.17
2019-04-13T06:03:28.504Z,5.90
2019-04-13T06:05:57.095Z,6.40
2019-04-13T06:08:25.527Z,6.00
2019-04-13T06:10:54.109Z,5.63
2019-04-13T06:13:24.312Z,6.93
2019-04-13T06:15:52.679Z,5.60
2019-04-13T06:18:21.618Z,5.47
2019-04-13T06:20:50.134Z,5.63
2019-04-13T06:23:19.467Z,6.17
2019-04-13T06:25:48.481Z,6.20
2019-04-13T06:28:17.223Z,6.07
2019-04-13T06:30:50.186Z,6.63
2019-04-13T06:33:20.317Z,5.90
2019-04-13T06:35:48.744Z,5.63
2019-04-13T06:38:17.185Z,5.67
2019-04-13T06:40:45.609Z,6.03
2019-04-13T06:43:14.033Z,6.30
2019-04-13T06:45:42.497Z,5.57
2019-04-13T06:48:10.935Z,6.00
2019-04-13T06:50:39.373Z,5.73
2019-04-13T06:53:08.379Z,5.40
2019-04-13T06:55:36.924Z,6.10
2019-04-13T06:58:05.362Z,6.00
2019-04-13T07:00:33.835Z,6.17
2019-04-13T07:03:02.294Z,5.70
2019-04-13T07:05:30.713Z,6.23
2019-04-13T07:08:00.769Z,5.50
2019-04-13T07:10:43.834Z,6.17
2019-04-13T07:13:05.399Z,5.80
2019-04-13T07:15:46.323Z,6.10
2019-04-13T07:18:05.683Z,5.43
2019-04-13T07:20:34.205Z,6.97
2019-04-13T07:23:02.834Z,5.93
2019-04-13T07:25:33.419Z,5.87
2019-04-13T07:28:01.962Z,5.80
2019-04-13T07:30:31.038Z,6.13
2019-04-13T07:32:59.616Z,5.50
2019-04-13T07:35:36.759Z,5.60
2019-04-13T07:38:04.366Z,5.73
2019-04-13T07:40:33.252Z,5.40
2019-04-13T07:43:01.959Z,5.60
2019-04-13T07:49:13.699Z,6.23
2019-04-13T07:51:57.287Z,5.47
2019-04-13T07:54:25.876Z,5.63
2019-04-13T07:56:54.387Z,5.53
2019-04-13T07:59:23.075Z,5.37
2019-04-13T08:01:57.561Z,4.93
2019-04-13T08:04:26.138Z,5.63
2019-04-13T08:06:54.728Z,7.53
2019-04-13T08:09:23.309Z,7.97
2019-04-13T08:11:51.887Z,6.67
2019-04-13T08:14:31.322Z,6.00
2019-04-13T08:17:06.155Z,5.83
2019-04-13T08:19:39.546Z,5.93
2019-04-13T08:22:08.237Z,6.00
2019-04-13T08:24:36.814Z,5.60
2019-04-13T08:27:05.400Z,7.00
2019-04-13T08:29:34.002Z,5.63
2019-04-13T08:32:02.876Z,5.73
2019-04-13T08:34:31.453Z,5.83
2019-04-13T08:37:03.262Z,5.00
2019-04-13T08:40:02.668Z,5.60
2019-04-13T08:42:31.507Z,5.77
2019-04-13T08:45:00.088Z,5.90
2019-04-13T08:47:28.669Z,5.70
2019-04-13T08:49:57.376Z,5.67
2019-04-13T08:52:26.039Z,5.67
2019-04-13T08:54:54.550Z,6.43
2019-04-13T08:57:23.204Z,6.33
2019-04-13T08:59:51.787Z,5.00
2019-04-13T09:02:20.785Z,5.73
2019-04-13T09:04:49.362Z,5.67
2019-04-13T09:07:17.945Z,7.05
2019-04-13T09:09:49.911Z,5.60
2019-04-13T09:12:16.850Z,5.70
2019-04-13T09:14:45.436Z,6.63
2019-04-13T09:17:16.959Z,5.53
2019-04-13T09:19:46.563Z,5.53
2019-04-13T09:22:17.024Z,5.40
2019-04-13T09:24:45.600Z,5.53
2019-04-13T09:27:14.183Z,5.43
2019-04-13T09:29:44.460Z,5.77
2019-04-13T09:32:18.960Z,5.27
2019-04-13T09:34:47.555Z,5.63
2019-04-13T09:37:16.305Z,6.00
2019-04-13T09:39:44.880Z,5.30
2019-04-13T09:42:13.668Z,6.03
2019-04-13T09:44:42.252Z,5.87
2019-04-13T09:47:12.403Z,6.40
2019-04-13T09:49:41.058Z,5.57
2019-04-13T09:52:09.678Z,6.23
2019-04-13T09:54:40.769Z,5.80
2019-04-13T09:57:08.655Z,5.47
2019-04-13T09:59:37.231Z,6.47
2019-04-13T10:02:05.748Z,6.13
2019-04-13T10:04:52.938Z,6.33
2019-04-13T10:07:21.451Z,5.70
2019-04-13T10:09:49.950Z,5.43
2019-04-13T10:12:20.242Z,5.87
2019-04-13T10:14:50.298Z,5.40
2019-04-13T10:17:24.166Z,5.97
2019-04-13T10:19:52.738Z,5.43
2019-04-13T10:22:24.463Z,5.97
2019-04-13T10:24:51.407Z,5.63
2019-04-13T10:27:20.009Z,5.73
2019-04-13T10:29:49.817Z,4.93
2019-04-13T10:32:18.845Z,5.23
2019-04-13T10:34:47.355Z,6.20
2019-04-13T10:37:16.062Z,6.10
2019-04-13T10:39:46.604Z,7.43
2019-04-13T10:42:14.755Z,6.00
2019-04-13T10:44:47.575Z,5.50
2019-04-13T10:47:23.531Z,5.87
2019-04-13T10:49:53.615Z,5.37
2019-04-13T10:52:23.208Z,5.20
2019-04-13T10:54:51.642Z,5.20
2019-04-13T10:57:20.062Z,5.43
2019-04-13T10:59:50.747Z,4.90
2019-04-13T11:02:22.683Z,4.87
2019-04-13T11:04:49.220Z,5.03
2019-04-13T11:07:17.779Z,5.20
2019-04-13T11:09:46.249Z,5.30
2019-04-13T11:12:14.683Z,5.00
2019-04-13T11:14:43.288Z,5.17
2019-04-13T11:17:12.586Z,5.23
2019-04-13T11:19:41.253Z,5.50
2019-04-13T11:22:10.002Z,5.53
2019-04-13T11:24:38.641Z,5.13
2019-04-13T11:27:07.214Z,5.50
2019-04-13T11:29:35.629Z,5.80
2019-04-13T11:32:04.160Z,5.27
2019-04-13T11:34:32.697Z,4.77
2019-04-13T11:37:01.331Z,5.63
2019-04-13T11:39:34.289Z,5.10
2019-04-13T11:42:04.176Z,4.80
2019-04-13T11:44:52.889Z,4.73
2019-04-13T11:47:23.020Z,4.67
2019-04-13T11:49:56.593Z,4.40
2019-04-13T11:52:21.672Z,5.00
2019-04-13T11:54:50.159Z,4.97
2019-04-13T11:57:18.712Z,4.20
2019-04-13T11:59:47.375Z,4.17
2019-04-13T12:02:18.403Z,4.80
2019-04-13T12:05:00.050Z,4.53
2019-04-13T12:07:35.233Z,5.00
2019-04-13T12:10:15.484Z,4.60
2019-04-13T12:13:02.157Z,5.07
2019-04-13T12:15:39.310Z,4.70
2019-04-13T12:18:22.465Z,5.07
2019-04-13T12:20:55.926Z,4.93
2019-04-13T12:23:23.361Z,5.17
2019-04-13T12:25:51.813Z,5.30
2019-04-13T12:28:20.262Z,5.60
2019-04-13T12:31:00.416Z,5.27
2019-04-13T12:33:28.925Z,6.27
2019-04-13T12:35:57.358Z,4.70
2019-04-13T12:38:25.775Z,4.80
2019-04-13T12:40:58.863Z,4.80
2019-04-13T12:43:27.284Z,5.00
2019-04-13T12:45:55.788Z,4.83
2019-04-13T12:48:24.222Z,5.30
2019-04-13T12:50:52.738Z,5.23
2019-04-13T12:53:21.186Z,6.10
2019-04-13T12:55:49.666Z,5.87
2019-04-13T12:58:22.763Z,6.20
2019-04-13T13:00:49.874Z,5.57
2019-04-13T13:03:19.990Z,6.23
2019-04-13T13:05:57.498Z,5.67
2019-04-13T13:08:25.930Z,5.97
2019-04-13T13:10:54.358Z,6.57
2019-04-13T13:13:22.812Z,5.70
2019-04-13T13:15:51.296Z,6.43
2019-04-13T13:18:19.726Z,6.40
2019-04-13T13:20:48.139Z,6.60
2019-04-13T13:23:16.612Z,6.47
2019-04-13T13:25:45.020Z,6.30
2019-04-13T13:28:13.466Z,6.63
2019-04-13T13:30:41.891Z,6.37
2019-04-13T13:33:10.334Z,6.83
2019-04-13T13:35:38.779Z,6.10
2019-04-13T13:38:07.202Z,6.47
2019-04-13T13:40:35.628Z,6.07
2019-04-13T13:43:04.505Z,7.73
2019-04-13T13:45:32.964Z,6.30
2019-04-13T13:48:02.098Z,6.30
2019-04-13T13:50:30.673Z,6.77
2019-04-13T13:52:59.107Z,5.90
2019-04-13T13:55:27.610Z,5.60
2019-04-13T13:58:09.751Z,5.97
2019-04-13T14:00:55.718Z,6.07
2019-04-13T14:03:24.307Z,6.27
2019-04-13T14:05:52.731Z,6.50
2019-04-13T14:08:21.178Z,6.50
2019-04-13T14:10:49.595Z,6.03
2019-04-13T14:13:18.148Z,6.00
2019-04-13T14:15:46.604Z,6.10
2019-04-13T14:18:15.028Z,6.33
2019-04-13T14:20:43.443Z,6.30
2019-04-13T14:23:11.999Z,6.97
2019-04-13T14:25:40.415Z,5.93
2019-04-13T14:28:08.963Z,6.17
2019-04-13T14:30:37.397Z,5.67
2019-04-13T14:33:05.893Z,6.97
2019-04-13T14:35:34.389Z,6.03
2019-04-13T14:38:03.003Z,5.60
2019-04-13T14:40:31.503Z,5.83
2019-04-13T14:42:59.932Z,5.93
2019-04-13T14:45:28.377Z,6.40
2019-04-13T14:47:56.780Z,6.23
2019-04-13T14:50:25.309Z,6.13
2019-04-13T14:52:53.764Z,5.80
2019-04-13T14:55:22.276Z,5.27
2019-04-13T14:57:50.706Z,5.97
2019-04-13T15:00:21.167Z,5.60
2019-04-13T15:02:49.277Z,6.30
2019-04-13T15:05:17.691Z,5.97
2019-04-13T15:07:46.172Z,6.40
2019-04-13T15:10:14.635Z,6.20
2019-04-13T15:12:43.055Z,5.70
2019-04-13T15:15:11.639Z,5.87
2019-04-13T15:17:53.903Z,5.50
2019-04-13T15:20:26.686Z,5.57
2019-04-13T15:22:55.905Z,5.60
2019-04-13T15:25:22.627Z,5.00
2019-04-13T15:27:55.222Z,5.63
2019-04-13T15:30:22.606Z,5.17
2019-04-13T15:32:51.579Z,5.77
2019-04-13T15:35:20.778Z,5.37
2019-04-13T15:37:51.541Z,5.40
2019-04-13T15:40:23.721Z,5.80
2019-04-13T15:42:56.981Z,7.17
2019-04-13T15:45:20.611Z,5.60
2019-04-13T15:47:49.048Z,5.50
2019-04-13T15:50:19.435Z,6.07
2019-04-13T15:52:48.895Z,5.17
2019-04-13T15:55:18.628Z,5.57
2019-04-13T15:57:47.196Z,5.50
2019-04-13T16:00:16.813Z,5.23
2019-04-13T16:02:45.663Z,5.80
2019-04-13T16:05:14.171Z,5.27
2019-04-13T16:07:42.959Z,6.03
2019-04-13T16:10:19.458Z,6.13
2019-04-13T16:12:49.552Z,7.13
2019-04-13T16:15:20.722Z,6.97
2019-04-13T16:17:49.264Z,6.20
2019-04-13T16:20:18.333Z,6.13
2019-04-13T16:22:47.314Z,6.37
2019-04-13T16:25:16.374Z,5.83
2019-04-13T16:27:46.613Z,5.23
2019-04-13T16:30:28.736Z,5.03
2019-04-13T16:33:15.298Z,5.77
2019-04-13T16:35:45.368Z,5.73
2019-04-13T16:38:13.795Z,6.10
2019-04-13T16:40:42.247Z,5.03
2019-04-13T16:43:11.674Z,5.70
2019-04-13T16:45:44.765Z,6.90
2019-04-13T16:48:14.834Z,6.53
2019-04-13T16:50:57.498Z,5.73
2019-04-13T16:53:44.957Z,6.43
2019-04-13T16:56:18.744Z,8.10
2019-04-13T16:58:52.836Z,5.63
2019-04-13T17:01:25.595Z,5.13
2019-04-13T17:03:59.509Z,5.07
2019-04-13T17:06:29.013Z,5.00
2019-04-13T17:08:58.535Z,5.37
2019-04-13T17:11:27.641Z,5.57
2019-04-13T17:13:56.101Z,5.20
2019-04-13T17:16:25.516Z,5.43
2019-04-13T17:18:59.051Z,5.00
2019-04-13T17:21:29.396Z,6.87
2019-04-13T17:24:00.620Z,4.80
2019-04-13T17:26:31.528Z,5.37
2019-04-13T17:29:02.419Z,5.17
2019-04-13T17:31:51.396Z,4.77
2019-04-13T17:34:30.422Z,4.80
2019-04-13T17:37:00.502Z,4.73
2019-04-13T17:39:29.712Z,4.60
2019-04-13T17:42:01.302Z,5.30
2019-04-13T17:44:35.382Z,5.03
2019-04-13T17:47:08.090Z,4.90
2019-04-13T17:49:55.105Z,4.73
2019-04-13T17:52:41.787Z,4.50
2019-04-13T17:55:14.819Z,4.93
2019-04-13T17:57:47.497Z,3.90
2019-04-13T18:00:35.059Z,5.00
2019-04-13T18:03:15.536Z,4.70
2019-04-13T18:05:45.926Z,4.73
2019-04-13T18:08:37.403Z,4.70
2019-04-13T18:11:03.136Z,4.10
2019-04-13T18:13:44.650Z,5.37
2019-04-13T18:16:06.146Z,6.53
2019-04-13T18:18:37.556Z,5.43
2019-04-13T18:21:05.995Z,4.90
2019-04-13T18:23:34.411Z,5.03
2019-04-13T18:26:04.228Z,5.60
2019-04-13T18:28:33.742Z,4.63
2019-04-13T18:31:02.253Z,5.83
2019-04-13T18:33:30.687Z,5.30
2019-04-13T18:36:00.439Z,5.03
2019-04-13T18:38:29.030Z,5.93
2019-04-13T18:40:57.468Z,5.10
2019-04-13T18:43:29.395Z,5.50
2019-04-13T18:45:56.070Z,5.50
2019-04-13T18:48:25.029Z,5.67
2019-04-13T18:50:53.978Z,5.77
2019-04-13T18:53:23.355Z,5.50
2019-04-13T18:55:51.924Z,6.13
2019-04-13T18:58:20.728Z,6.10
2019-04-13T19:00:49.293Z,6.77
2019-04-13T19:03:17.781Z,6.37
2019-04-13T19:05:46.210Z,6.60
2019-04-13T19:08:14.627Z,6.63
2019-04-13T19:10:43.087Z,6.47
2019-04-13T19:13:11.551Z,6.47
2019-04-13T19:15:40.050Z,6.23
2019-04-13T19:18:08.468Z,6.43
2019-04-13T19:20:37.055Z,7.07
2019-04-13T19:23:05.475Z,6.73
2019-04-13T19:25:33.987Z,7.27
2019-04-13T19:28:02.398Z,6.00
2019-04-13T19:30:33.352Z,6.73
2019-04-13T19:33:01.237Z,6.53
2019-04-13T19:35:29.657Z,6.50
2019-04-13T19:37:58.108Z,6.27
2019-04-13T19:40:26.539Z,6.13
2019-04-13T19:42:55.010Z,5.77
2019-04-13T19:45:23.498Z,5.97
2019-04-13T19:47:51.943Z,6.17
2019-04-13T19:50:20.384Z,6.03
2019-04-13T19:53:07.072Z,6.70
2019-04-13T19:55:35.486Z,6.23
2019-04-13T19:58:03.919Z,6.87
2019-04-13T20:00:33.973Z,6.63
2019-04-13T20:03:02.423Z,6.60
2019-04-13T20:05:30.847Z,6.70
2019-04-13T20:07:59.275Z,6.43
2019-04-13T20:10:27.709Z,6.33
2019-04-13T20:12:56.157Z,6.80
2019-04-13T20:15:24.937Z,5.67
2019-04-13T20:17:53.579Z,6.60
2019-04-13T20:20:22.008Z,5.97
2019-04-13T20:22:50.427Z,6.03
2019-04-13T20:25:20.093Z,5.97
2019-04-13T20:27:49.779Z,6.87
2019-04-13T20:30:19.461Z,6.73
2019-04-13T20:32:49.172Z,6.30
2019-04-13T20:35:17.720Z,5.60
2019-04-13T20:37:46.907Z,5.40
2019-04-13T20:40:35.962Z,5.97
2019-04-13T20:43:05.789Z,5.67
2019-04-13T20:45:34.413Z,6.37
2019-04-13T20:48:04.041Z,8.30
2019-04-13T20:50:33.796Z,5.97
2019-04-13T20:53:02.492Z,5.83
2019-04-13T20:55:30.920Z,6.33
2019-04-13T20:57:59.342Z,6.10
2019-04-13T21:00:27.792Z,5.60
2019-04-13T21:02:56.946Z,5.70
2019-04-13T21:05:25.526Z,5.40
2019-04-13T21:07:55.098Z,5.23
2019-04-13T21:10:23.653Z,5.87
2019-04-13T21:12:52.078Z,6.23
2019-04-13T21:15:20.521Z,5.80
2019-04-13T21:17:48.955Z,6.30
2019-04-13T21:20:18.554Z,6.10
2019-04-13T21:22:47.036Z,8.10
2019-04-13T21:25:16.270Z,6.80
2019-04-13T21:27:44.846Z,6.27
2019-04-13T21:30:14.310Z,6.53
2019-04-13T21:32:42.876Z,6.80
2019-04-13T21:35:12.166Z,5.93
2019-04-13T21:37:40.638Z,6.13
2019-04-13T21:40:10.171Z,5.83
2019-04-13T21:42:38.651Z,6.47
2019-04-13T21:45:07.951Z,6.40
2019-04-13T21:47:36.487Z,5.93
2019-04-13T21:50:10.897Z,5.80
2019-04-13T21:52:54.155Z,6.47
2019-04-13T21:55:39.806Z,6.23
2019-04-13T21:58:09.787Z,7.03
2019-04-13T22:01:01.757Z,7.23
2019-04-13T22:03:31.649Z,5.90
2019-04-13T22:06:01.673Z,5.73
2019-04-13T22:08:30.210Z,6.03
2019-04-13T22:10:59.496Z,6.20
2019-04-13T22:13:31.751Z,5.90
2019-04-13T22:16:00.214Z,6.03
2019-04-13T22:18:29.986Z,6.37
2019-04-13T22:20:58.521Z,5.70
2019-04-13T22:23:28.038Z,6.40
2019-04-13T22:25:56.640Z,6.37
2019-04-13T22:28:27.754Z,6.20
2019-04-13T22:31:04.670Z,6.53
2019-04-13T22:33:33.336Z,5.80
2019-04-13T22:36:09.591Z,6.13
2019-04-13T22:38:39.173Z,6.87
2019-04-13T22:41:07.695Z,6.03
2019-04-13T22:43:36.917Z,6.43
2019-04-13T22:46:06.399Z,7.10
2019-04-13T22:48:56.521Z,7.10
2019-04-13T22:51:35.880Z,7.17
2019-04-13T22:54:18.838Z,7.13
2019-04-13T22:57:01.656Z,7.97
2019-04-13T22:59:31.311Z,8.60
2019-04-13T23:02:01.706Z,7.90
2019-04-13T23:04:30.155Z,8.93
2019-04-13T23:06:59.571Z,6.93
2019-04-13T23:09:28.214Z,7.80
2019-04-13T23:11:58.509Z,7.60
2019-04-13T23:14:27.041Z,7.27
2019-04-13T23:16:56.245Z,7.63
2019-04-13T23:19:24.782Z,6.60
2019-04-13T23:21:53.220Z,6.73
2019-04-13T23:24:21.648Z,8.30
2019-04-13T23:26:50.090Z,8.07
2019-04-13T23:29:19.276Z,7.47
2019-04-13T23:31:47.820Z,7.57
2019-04-13T23:34:16.260Z,6.93
2019-04-13T23:36:44.696Z,6.93
2019-04-13T23:39:13.111Z,7.13
2019-04-13T23:41:42.804Z,7.07
2019-04-13T23:44:11.399Z,7.47
2019-04-13T23:46:39.996Z,7.00
2019-04-13T23:49:08.415Z,7.57
2019-04-13T23:51:37.882Z,7.33
2019-04-13T23:54:06.547Z,7.67
2019-04-13T23:56:52.018Z,7.53
2019-04-13T23:59:41.362Z,7.93
